createdAt,value
2019-03-27T00:00:26.951Z,1027.15
2019-03-27T00:01:26.952Z,1027.14
2019-03-27T00:02:26.929Z,1027.14
2019-03-27T00:03:26.919Z,1027.16
2019-03-27T00:04:26.906Z,1027.15
2019-03-27T00:05:26.895Z,1027.16
2019-03-27T00:06:26.886Z,1027.20
2019-03-27T00:07:26.883Z,1027.18
2019-03-27T00:08:26.862Z,1027.14
2019-03-27T00:09:26.852Z,1027.16
2019-03-27T00:10:26.841Z,1027.11
2019-03-27T00:11:26.829Z,1027.09
2019-03-27T00:12:26.825Z,1027.13
2019-03-27T00:13:26.826Z,1027.08
2019-03-27T00:14:26.796Z,1027.15
2019-03-27T00:15:26.788Z,1027.12
2019-03-27T00:16:26.775Z,1027.13
2019-03-27T00:17:26.764Z,1027.15
2019-03-27T00:18:26.752Z,1027.11
2019-03-27T00:19:26.754Z,1027.14
2019-03-27T00:20:26.731Z,1027.14
2019-03-27T00:21:26.720Z,1027.08
2019-03-27T00:22:26.709Z,1027.06
2019-03-27T00:23:26.700Z,1027.03
2019-03-27T00:24:26.687Z,1027.02
2019-03-27T00:25:26.690Z,1027.07
2019-03-27T00:26:26.666Z,1027.08
2019-03-27T00:27:26.658Z,1027.03
2019-03-27T00:28:26.643Z,1027.06
2019-03-27T00:29:26.632Z,1027.00
2019-03-27T00:30:26.625Z,1027.03
2019-03-27T00:31:26.620Z,1027.04
2019-03-27T00:32:26.599Z,1027.05
2019-03-27T00:33:26.592Z,1027.04
2019-03-27T00:34:26.579Z,1027.02
2019-03-27T00:35:26.566Z,1027.04
2019-03-27T00:36:26.555Z,1026.99
2019-03-27T00:37:26.555Z,1027.03
2019-03-27T00:38:26.534Z,1027.01
2019-03-27T00:39:26.522Z,1027.05
2019-03-27T00:40:26.513Z,1027.04
2019-03-27T00:41:26.502Z,1027.10
2019-03-27T00:42:26.495Z,1027.08
2019-03-27T00:43:26.490Z,1027.13
2019-03-27T00:44:26.473Z,1027.13
2019-03-27T00:45:27.297Z,1027.17
2019-03-27T00:46:26.448Z,1027.12
2019-03-27T00:47:26.439Z,1027.14
2019-03-27T00:48:26.496Z,1027.15
2019-03-27T00:49:26.427Z,1027.13
2019-03-27T00:50:26.407Z,1027.11
2019-03-27T00:51:26.397Z,1027.13
2019-03-27T00:52:26.383Z,1027.07
2019-03-27T00:53:26.373Z,1027.10
2019-03-27T00:54:26.363Z,1027.10
2019-03-27T00:55:26.380Z,1027.05
2019-03-27T00:56:26.341Z,1027.12
2019-03-27T00:57:26.333Z,1027.13
2019-03-27T00:58:26.320Z,1027.12
2019-03-27T00:59:26.311Z,1027.10
2019-03-27T01:00:26.303Z,1027.14
2019-03-27T01:01:26.304Z,1027.15
2019-03-27T01:02:26.283Z,1027.18
2019-03-27T01:03:26.269Z,1027.15
2019-03-27T01:04:26.256Z,1027.15
2019-03-27T01:05:26.257Z,1027.18
2019-03-27T01:06:26.240Z,1027.13
2019-03-27T01:07:26.236Z,1027.13
2019-03-27T01:08:26.215Z,1027.12
2019-03-27T01:09:26.205Z,1027.17
2019-03-27T01:10:26.197Z,1027.12
2019-03-27T01:11:26.183Z,1027.12
2019-03-27T01:12:26.186Z,1027.12
2019-03-27T01:13:26.177Z,1027.12
2019-03-27T01:14:26.151Z,1027.13
2019-03-27T01:15:38.864Z,1027.18
2019-03-27T01:16:27.133Z,1027.11
2019-03-27T01:17:26.127Z,1027.09
2019-03-27T01:18:26.111Z,1027.08
2019-03-27T01:19:26.119Z,1027.05
2019-03-27T01:20:26.089Z,1027.10
2019-03-27T01:21:26.078Z,1027.09
2019-03-27T01:22:26.139Z,1027.07
2019-03-27T01:23:26.057Z,1027.10
2019-03-27T01:24:26.045Z,1027.14
2019-03-27T01:25:26.047Z,1027.10
2019-03-27T01:26:26.032Z,1027.09
2019-03-27T01:27:26.030Z,1027.11
2019-03-27T01:28:26.005Z,1027.14
2019-03-27T01:29:26.021Z,1027.09
2019-03-27T01:30:26.008Z,1027.08
2019-03-27T01:31:25.997Z,1027.00
2019-03-27T01:32:25.977Z,1027.01
2019-03-27T01:33:25.951Z,1026.98
2019-03-27T01:34:25.957Z,1026.93
2019-03-27T01:35:25.941Z,1026.99
2019-03-27T01:36:25.920Z,1026.95
2019-03-27T01:37:25.919Z,1026.95
2019-03-27T01:38:28.802Z,1026.97
2019-03-27T01:39:25.900Z,1026.99
2019-03-27T01:40:25.894Z,1027.04
2019-03-27T01:41:25.867Z,1027.01
2019-03-27T01:42:25.865Z,1027.02
2019-03-27T01:43:25.857Z,1026.96
2019-03-27T01:44:25.837Z,1026.95
2019-03-27T01:45:25.842Z,1026.97
2019-03-27T01:46:25.814Z,1026.94
2019-03-27T01:47:25.812Z,1026.96
2019-03-27T01:48:25.804Z,1026.93
2019-03-27T01:49:25.792Z,1026.89
2019-03-27T01:50:25.775Z,1026.91
2019-03-27T01:51:25.763Z,1026.94
2019-03-27T01:52:25.751Z,1026.91
2019-03-27T01:53:25.741Z,1026.95
2019-03-27T01:54:25.734Z,1026.96
2019-03-27T01:55:25.742Z,1026.95
2019-03-27T01:56:25.714Z,1026.96
2019-03-27T01:57:25.699Z,1026.97
2019-03-27T01:58:25.755Z,1026.96
2019-03-27T01:59:25.679Z,1026.98
2019-03-27T02:00:25.666Z,1026.98
2019-03-27T02:01:25.672Z,1026.98
2019-03-27T02:02:25.650Z,1026.97
2019-03-27T02:03:25.636Z,1026.98
2019-03-27T02:04:25.628Z,1026.99
2019-03-27T02:05:25.618Z,1026.98
2019-03-27T02:06:25.603Z,1026.93
2019-03-27T02:07:25.613Z,1026.97
2019-03-27T02:08:25.591Z,1027.00
2019-03-27T02:09:25.572Z,1026.94
2019-03-27T02:10:25.560Z,1026.90
2019-03-27T02:11:25.551Z,1026.98
2019-03-27T02:12:25.546Z,1027.00
2019-03-27T02:13:25.547Z,1027.00
2019-03-27T02:14:25.544Z,1027.01
2019-03-27T02:15:25.512Z,1027.02
2019-03-27T02:16:25.510Z,1027.05
2019-03-27T02:17:25.503Z,1027.06
2019-03-27T02:18:25.474Z,1027.10
2019-03-27T02:19:25.482Z,1027.05
2019-03-27T02:20:25.456Z,1027.10
2019-03-27T02:21:25.452Z,1027.10
2019-03-27T02:22:25.430Z,1027.09
2019-03-27T02:23:25.420Z,1027.06
2019-03-27T02:24:25.411Z,1027.07
2019-03-27T02:25:25.413Z,1027.06
2019-03-27T02:26:25.388Z,1027.06
2019-03-27T02:27:25.380Z,1027.05
2019-03-27T02:28:25.370Z,1027.03
2019-03-27T02:29:25.385Z,1027.09
2019-03-27T02:30:25.411Z,1027.05
2019-03-27T02:31:25.374Z,1027.09
2019-03-27T02:32:25.346Z,1027.06
2019-03-27T02:33:25.314Z,1027.06
2019-03-27T02:34:25.304Z,1027.09
2019-03-27T02:35:25.292Z,1027.09
2019-03-27T02:36:25.283Z,1027.06
2019-03-27T02:37:25.285Z,1027.06
2019-03-27T02:38:25.262Z,1027.07
2019-03-27T02:39:25.248Z,1027.09
2019-03-27T02:40:25.251Z,1027.09
2019-03-27T02:41:25.227Z,1027.07
2019-03-27T02:42:25.218Z,1027.14
2019-03-27T02:43:25.226Z,1027.17
2019-03-27T02:44:25.202Z,1027.16
2019-03-27T02:45:25.193Z,1027.17
2019-03-27T02:46:25.653Z,1027.16
2019-03-27T02:47:25.167Z,1027.16
2019-03-27T02:48:25.155Z,1027.12
2019-03-27T02:49:25.156Z,1027.14
2019-03-27T02:50:25.132Z,1027.15
2019-03-27T02:51:25.133Z,1027.12
2019-03-27T02:52:25.115Z,1027.07
2019-03-27T02:53:25.106Z,1027.12
2019-03-27T02:54:25.090Z,1027.06
2019-03-27T02:55:25.116Z,1027.08
2019-03-27T02:56:25.069Z,1027.08
2019-03-27T02:57:25.077Z,1027.09
2019-03-27T02:58:25.047Z,1027.06
2019-03-27T02:59:25.041Z,1027.10
2019-03-27T03:00:25.028Z,1027.06
2019-03-27T03:01:25.028Z,1027.09
2019-03-27T03:02:25.004Z,1027.12
2019-03-27T03:03:24.997Z,1027.11
2019-03-27T03:04:24.984Z,1027.15
2019-03-27T03:05:24.973Z,1027.12
2019-03-27T03:06:24.963Z,1027.10
2019-03-27T03:07:24.967Z,1027.14
2019-03-27T03:08:24.944Z,1027.11
2019-03-27T03:09:24.944Z,1027.16
2019-03-27T03:10:24.922Z,1027.11
2019-03-27T03:11:24.911Z,1027.12
2019-03-27T03:12:24.901Z,1027.10
2019-03-27T03:13:24.913Z,1027.09
2019-03-27T03:14:24.879Z,1027.05
2019-03-27T03:15:24.879Z,1027.05
2019-03-27T03:16:40.882Z,1027.04
2019-03-27T03:17:25.847Z,1027.04
2019-03-27T03:18:24.847Z,1027.05
2019-03-27T03:19:24.843Z,1027.05
2019-03-27T03:20:24.816Z,1027.07
2019-03-27T03:21:24.804Z,1027.08
2019-03-27T03:22:24.795Z,1027.07
2019-03-27T03:23:24.784Z,1027.16
2019-03-27T03:24:24.773Z,1027.09
2019-03-27T03:25:24.786Z,1027.09
2019-03-27T03:26:24.755Z,1027.15
2019-03-27T03:27:24.742Z,1027.18
2019-03-27T03:28:24.737Z,1027.15
2019-03-27T03:29:24.721Z,1027.18
2019-03-27T03:30:24.712Z,1027.14
2019-03-27T03:31:24.712Z,1027.17
2019-03-27T03:32:24.689Z,1027.23
2019-03-27T03:33:24.678Z,1027.21
2019-03-27T03:34:24.668Z,1027.22
2019-03-27T03:35:24.665Z,1027.21
2019-03-27T03:36:24.646Z,1027.24
2019-03-27T03:37:24.650Z,1027.20
2019-03-27T03:38:24.627Z,1027.18
2019-03-27T03:39:24.615Z,1027.24
2019-03-27T03:40:24.674Z,1027.30
2019-03-27T03:41:24.593Z,1027.26
2019-03-27T03:42:24.582Z,1027.26
2019-03-27T03:43:24.591Z,1027.28
2019-03-27T03:44:24.563Z,1027.28
2019-03-27T03:45:24.549Z,1027.28
2019-03-27T03:46:24.539Z,1027.29
2019-03-27T03:47:24.528Z,1027.30
2019-03-27T03:48:24.517Z,1027.24
2019-03-27T03:49:24.517Z,1027.30
2019-03-27T03:50:24.496Z,1027.23
2019-03-27T03:51:24.485Z,1027.25
2019-03-27T03:52:24.475Z,1027.27
2019-03-27T03:53:24.464Z,1027.34
2019-03-27T03:54:24.457Z,1027.26
2019-03-27T03:55:24.454Z,1027.30
2019-03-27T03:56:24.437Z,1027.33
2019-03-27T03:57:24.429Z,1027.31
2019-03-27T03:58:24.421Z,1027.35
2019-03-27T03:59:24.400Z,1027.35
2019-03-27T04:00:24.393Z,1027.29
2019-03-27T04:01:24.397Z,1027.38
2019-03-27T04:02:24.373Z,1027.34
2019-03-27T04:03:24.359Z,1027.35
2019-03-27T04:04:24.347Z,1027.33
2019-03-27T04:05:24.343Z,1027.36
2019-03-27T04:06:24.332Z,1027.39
2019-03-27T04:07:24.330Z,1027.30
2019-03-27T04:08:24.496Z,1027.28
2019-03-27T04:09:24.307Z,1027.30
2019-03-27T04:10:24.361Z,1027.31
2019-03-27T04:11:24.275Z,1027.31
2019-03-27T04:12:24.269Z,1027.33
2019-03-27T04:13:24.265Z,1027.33
2019-03-27T04:14:24.242Z,1027.37
2019-03-27T04:15:24.233Z,1027.27
2019-03-27T04:16:24.220Z,1027.35
2019-03-27T04:17:24.210Z,1027.44
2019-03-27T04:18:24.207Z,1027.40
2019-03-27T04:19:24.199Z,1027.40
2019-03-27T04:20:24.177Z,1027.39
2019-03-27T04:21:26.964Z,1027.40
2019-03-27T04:22:24.156Z,1027.41
2019-03-27T04:23:24.147Z,1027.43
2019-03-27T04:24:24.135Z,1027.44
2019-03-27T04:25:24.154Z,1027.45
2019-03-27T04:26:24.115Z,1027.41
2019-03-27T04:27:24.106Z,1027.45
2019-03-27T04:28:24.110Z,1027.43
2019-03-27T04:29:24.084Z,1027.45
2019-03-27T04:30:24.071Z,1027.48
2019-03-27T04:31:24.069Z,1027.43
2019-03-27T04:32:24.050Z,1027.47
2019-03-27T04:33:24.043Z,1027.52
2019-03-27T04:34:24.028Z,1027.49
2019-03-27T04:35:24.023Z,1027.49
2019-03-27T04:36:24.007Z,1027.50
2019-03-27T04:37:24.008Z,1027.58
2019-03-27T04:38:24.004Z,1027.57
2019-03-27T04:39:23.975Z,1027.59
2019-03-27T04:40:23.963Z,1027.56
2019-03-27T04:41:23.954Z,1027.60
2019-03-27T04:42:23.946Z,1027.61
2019-03-27T04:43:23.940Z,1027.58
2019-03-27T04:44:23.919Z,1027.61
2019-03-27T04:45:23.908Z,1027.60
2019-03-27T04:46:23.900Z,1027.60
2019-03-27T04:47:31.994Z,1027.62
2019-03-27T04:48:24.899Z,1027.58
2019-03-27T04:49:23.867Z,1027.62
2019-03-27T04:50:23.854Z,1027.61
2019-03-27T04:51:23.870Z,1027.63
2019-03-27T04:52:23.832Z,1027.64
2019-03-27T04:53:23.821Z,1027.60
2019-03-27T04:54:26.936Z,1027.59
2019-03-27T04:55:23.807Z,1027.58
2019-03-27T04:56:23.788Z,1027.64
2019-03-27T04:57:23.777Z,1027.58
2019-03-27T04:58:23.767Z,1027.62
2019-03-27T04:59:23.755Z,1027.60
2019-03-27T05:00:23.756Z,1027.58
2019-03-27T05:01:23.734Z,1027.56
2019-03-27T05:02:23.728Z,1027.59
2019-03-27T05:03:23.712Z,1027.57
2019-03-27T05:04:23.702Z,1027.58
2019-03-27T05:05:23.689Z,1027.56
2019-03-27T05:06:23.690Z,1027.56
2019-03-27T05:07:23.670Z,1027.61
2019-03-27T05:08:23.658Z,1027.60
2019-03-27T05:09:23.648Z,1027.59
2019-03-27T05:10:23.639Z,1027.62
2019-03-27T05:11:23.624Z,1027.62
2019-03-27T05:12:23.627Z,1027.64
2019-03-27T05:13:23.602Z,1027.62
2019-03-27T05:14:23.599Z,1027.62
2019-03-27T05:15:23.580Z,1027.59
2019-03-27T05:16:23.577Z,1027.59
2019-03-27T05:17:23.559Z,1027.56
2019-03-27T05:18:23.558Z,1027.61
2019-03-27T05:19:23.538Z,1027.62
2019-03-27T05:20:23.556Z,1027.65
2019-03-27T05:21:23.515Z,1027.62
2019-03-27T05:22:23.509Z,1027.62
2019-03-27T05:23:23.494Z,1027.60
2019-03-27T05:24:23.507Z,1027.66
2019-03-27T05:25:23.473Z,1027.65
2019-03-27T05:26:23.463Z,1027.73
2019-03-27T05:27:23.451Z,1027.73
2019-03-27T05:28:23.442Z,1027.71
2019-03-27T05:29:23.429Z,1027.76
2019-03-27T05:30:23.429Z,1027.72
2019-03-27T05:31:23.408Z,1027.79
2019-03-27T05:32:23.397Z,1027.78
2019-03-27T05:33:23.386Z,1027.76
2019-03-27T05:34:23.375Z,1027.81
2019-03-27T05:35:23.374Z,1027.82
2019-03-27T05:36:23.372Z,1027.86
2019-03-27T05:37:23.343Z,1027.85
2019-03-27T05:38:23.332Z,1027.90
2019-03-27T05:39:23.321Z,1027.96
2019-03-27T05:40:23.311Z,1027.95
2019-03-27T05:41:23.300Z,1027.90
2019-03-27T05:42:23.305Z,1027.94
2019-03-27T05:43:23.287Z,1027.94
2019-03-27T05:44:23.269Z,1027.93
2019-03-27T05:45:23.258Z,1027.88
2019-03-27T05:46:26.404Z,1027.87
2019-03-27T05:47:23.235Z,1027.90
2019-03-27T05:48:23.236Z,1027.90
2019-03-27T05:49:23.220Z,1027.95
2019-03-27T05:50:23.205Z,1027.97
2019-03-27T05:51:23.194Z,1027.97
2019-03-27T05:52:23.181Z,1028.00
2019-03-27T05:53:23.174Z,1028.03
2019-03-27T05:54:23.173Z,1028.08
2019-03-27T05:55:26.364Z,1028.07
2019-03-27T05:56:23.139Z,1028.06
2019-03-27T05:57:23.127Z,1027.99
2019-03-27T05:58:23.117Z,1028.05
2019-03-27T05:59:23.107Z,1028.05
2019-03-27T06:00:23.106Z,1028.05
2019-03-27T06:01:23.085Z,1028.05
2019-03-27T06:02:23.075Z,1028.06
2019-03-27T06:03:23.063Z,1028.04
2019-03-27T06:04:23.052Z,1028.02
2019-03-27T06:05:23.041Z,1028.06
2019-03-27T06:06:23.046Z,1028.05
2019-03-27T06:07:23.019Z,1028.08
2019-03-27T06:08:23.008Z,1028.05
2019-03-27T06:09:22.998Z,1028.11
2019-03-27T06:10:22.988Z,1028.11
2019-03-27T06:11:22.983Z,1028.10
2019-03-27T06:12:22.982Z,1028.09
2019-03-27T06:13:22.960Z,1028.09
2019-03-27T06:14:22.944Z,1028.14
2019-03-27T06:15:22.933Z,1028.22
2019-03-27T06:16:22.920Z,1028.22
2019-03-27T06:17:22.910Z,1028.20
2019-03-27T06:18:22.909Z,1028.17
2019-03-27T06:19:22.887Z,1028.16
2019-03-27T06:20:22.877Z,1028.20
2019-03-27T06:21:22.866Z,1028.18
2019-03-27T06:22:22.859Z,1028.13
2019-03-27T06:23:22.844Z,1028.18
2019-03-27T06:24:22.844Z,1028.16
2019-03-27T06:25:22.837Z,1028.16
2019-03-27T06:26:22.822Z,1028.19
2019-03-27T06:27:22.802Z,1028.18
2019-03-27T06:28:22.791Z,1028.18
2019-03-27T06:29:22.782Z,1028.19
2019-03-27T06:30:22.779Z,1028.22
2019-03-27T06:31:22.762Z,1028.20
2019-03-27T06:32:22.747Z,1028.20
2019-03-27T06:33:22.762Z,1028.21
2019-03-27T06:34:22.800Z,1028.19
2019-03-27T06:35:22.715Z,1028.17
2019-03-27T06:36:22.721Z,1028.22
2019-03-27T06:37:22.693Z,1028.18
2019-03-27T06:38:22.682Z,1028.17
2019-03-27T06:39:22.675Z,1028.15
2019-03-27T06:40:22.661Z,1028.15
2019-03-27T06:41:22.650Z,1028.09
2019-03-27T06:42:22.650Z,1028.07
2019-03-27T06:43:22.638Z,1028.10
2019-03-27T06:44:22.619Z,1028.11
2019-03-27T06:45:22.608Z,1028.11
2019-03-27T06:46:22.608Z,1028.13
2019-03-27T06:47:22.588Z,1028.15
2019-03-27T06:48:26.429Z,1028.15
2019-03-27T06:49:22.566Z,1028.17
2019-03-27T06:50:22.561Z,1028.14
2019-03-27T06:51:25.032Z,1028.11
2019-03-27T06:52:22.534Z,1028.16
2019-03-27T06:53:22.522Z,1028.18
2019-03-27T06:54:22.536Z,1028.19
2019-03-27T06:55:22.502Z,1028.20
2019-03-27T06:56:22.493Z,1028.18
2019-03-27T06:57:22.479Z,1028.25
2019-03-27T06:58:22.469Z,1028.29
2019-03-27T06:59:22.457Z,1028.23
2019-03-27T07:00:22.457Z,1028.30
2019-03-27T07:01:22.434Z,1028.26
2019-03-27T07:02:22.424Z,1028.30
2019-03-27T07:03:22.414Z,1028.26
2019-03-27T07:04:22.403Z,1028.24
2019-03-27T07:05:22.393Z,1028.32
2019-03-27T07:06:22.402Z,1028.30
2019-03-27T07:07:22.374Z,1028.31
2019-03-27T07:08:22.423Z,1028.34
2019-03-27T07:09:22.353Z,1028.35
2019-03-27T07:10:22.343Z,1028.30
2019-03-27T07:11:22.326Z,1028.33
2019-03-27T07:12:22.327Z,1028.37
2019-03-27T07:13:22.306Z,1028.31
2019-03-27T07:14:22.293Z,1028.36
2019-03-27T07:15:22.283Z,1028.37
2019-03-27T07:16:22.271Z,1028.41
2019-03-27T07:17:22.269Z,1028.39
2019-03-27T07:18:22.265Z,1028.40
2019-03-27T07:19:22.241Z,1028.42
2019-03-27T07:20:22.228Z,1028.40
2019-03-27T07:21:22.217Z,1028.41
2019-03-27T07:22:22.206Z,1028.46
2019-03-27T07:23:22.198Z,1028.45
2019-03-27T07:24:22.197Z,1028.43
2019-03-27T07:25:22.175Z,1028.46
2019-03-27T07:26:22.167Z,1028.53
2019-03-27T07:27:22.161Z,1028.52
2019-03-27T07:28:22.145Z,1028.59
2019-03-27T07:29:22.133Z,1028.54
2019-03-27T07:30:22.140Z,1028.57
2019-03-27T07:31:22.112Z,1028.63
2019-03-27T07:32:22.102Z,1028.63
2019-03-27T07:33:22.096Z,1028.55
2019-03-27T07:34:22.080Z,1028.60
2019-03-27T07:35:22.072Z,1028.57
2019-03-27T07:36:22.070Z,1028.56
2019-03-27T07:37:22.048Z,1028.52
2019-03-27T07:38:22.038Z,1028.54
2019-03-27T07:39:22.028Z,1028.58
2019-03-27T07:40:22.015Z,1028.55
2019-03-27T07:41:22.009Z,1028.55
2019-03-27T07:42:22.005Z,1028.58
2019-03-27T07:43:21.984Z,1028.62
2019-03-27T07:44:21.974Z,1028.66
2019-03-27T07:45:21.962Z,1028.65
2019-03-27T07:46:21.953Z,1028.70
2019-03-27T07:47:21.941Z,1028.67
2019-03-27T07:48:21.950Z,1028.62
2019-03-27T07:49:21.922Z,1028.66
2019-03-27T07:50:21.909Z,1028.62
2019-03-27T07:51:21.900Z,1028.62
2019-03-27T07:52:21.888Z,1028.66
2019-03-27T07:53:22.658Z,1028.66
2019-03-27T07:54:21.884Z,1028.66
2019-03-27T07:55:21.862Z,1028.72
2019-03-27T07:56:21.845Z,1028.68
2019-03-27T07:57:21.845Z,1028.69
2019-03-27T07:58:21.825Z,1028.72
2019-03-27T07:59:21.813Z,1028.77
2019-03-27T08:00:21.814Z,1028.71
2019-03-27T08:01:21.794Z,1028.79
2019-03-27T08:02:21.784Z,1028.76
2019-03-27T08:03:21.774Z,1028.80
2019-03-27T08:04:21.760Z,1028.78
2019-03-27T08:05:21.749Z,1028.74
2019-03-27T08:06:21.752Z,1028.82
2019-03-27T08:07:26.947Z,1028.78
2019-03-27T08:08:22.716Z,1028.83
2019-03-27T08:09:23.061Z,1028.82
2019-03-27T08:10:21.698Z,1028.85
2019-03-27T08:11:21.733Z,1028.85
2019-03-27T08:12:21.694Z,1028.82
2019-03-27T08:13:21.664Z,1028.77
2019-03-27T08:14:21.652Z,1028.81
2019-03-27T08:15:21.645Z,1028.81
2019-03-27T08:16:21.632Z,1028.80
2019-03-27T08:17:21.620Z,1028.83
2019-03-27T08:18:21.621Z,1028.85
2019-03-27T08:19:21.598Z,1028.86
2019-03-27T08:20:21.587Z,1028.81
2019-03-27T08:21:21.576Z,1028.84
2019-03-27T08:22:21.565Z,1028.84
2019-03-27T08:23:21.554Z,1028.86
2019-03-27T08:24:21.553Z,1028.76
2019-03-27T08:25:21.532Z,1028.78
2019-03-27T08:26:21.521Z,1028.76
2019-03-27T08:27:21.510Z,1028.76
2019-03-27T08:28:21.499Z,1028.70
2019-03-27T08:29:21.490Z,1028.72
2019-03-27T08:30:21.492Z,1028.72
2019-03-27T08:31:21.469Z,1028.73
2019-03-27T08:32:21.459Z,1028.80
2019-03-27T08:33:21.447Z,1028.84
2019-03-27T08:34:21.437Z,1028.78
2019-03-27T08:35:21.425Z,1028.74
2019-03-27T08:36:21.424Z,1028.77
2019-03-27T08:37:21.403Z,1028.90
2019-03-27T08:38:21.404Z,1028.96
2019-03-27T08:39:21.380Z,1028.97
2019-03-27T08:40:21.370Z,1029.02
2019-03-27T08:41:21.359Z,1028.88
2019-03-27T08:42:21.367Z,1028.88
2019-03-27T08:43:23.959Z,1029.02
2019-03-27T08:44:21.328Z,1029.04
2019-03-27T08:45:21.316Z,1028.99
2019-03-27T08:46:21.305Z,1029.00
2019-03-27T08:47:21.294Z,1028.96
2019-03-27T08:48:21.294Z,1029.02
2019-03-27T08:49:22.542Z,1028.93
2019-03-27T08:50:21.262Z,1028.92
2019-03-27T08:51:21.252Z,1028.93
2019-03-27T08:52:21.239Z,1029.03
2019-03-27T08:53:21.230Z,1029.05
2019-03-27T08:54:21.230Z,1029.04
2019-03-27T08:55:21.207Z,1028.98
2019-03-27T08:56:21.197Z,1029.03
2019-03-27T08:57:21.186Z,1029.03
2019-03-27T08:58:21.175Z,1029.01
2019-03-27T08:59:21.164Z,1029.09
2019-03-27T09:00:21.464Z,1029.10
2019-03-27T09:01:21.141Z,1029.14
2019-03-27T09:02:21.153Z,1029.08
2019-03-27T09:03:21.123Z,1029.04
2019-03-27T09:04:21.110Z,1028.99
2019-03-27T09:05:21.099Z,1029.11
2019-03-27T09:06:33.072Z,1029.00
2019-03-27T09:07:22.078Z,1029.07
2019-03-27T09:08:21.067Z,1029.10
2019-03-27T09:09:21.057Z,1029.09
2019-03-27T09:10:21.046Z,1029.08
2019-03-27T09:11:21.036Z,1029.11
2019-03-27T09:12:21.035Z,1029.11
2019-03-27T09:13:21.015Z,1029.07
2019-03-27T09:14:21.003Z,1029.09
2019-03-27T09:15:20.991Z,1029.07
2019-03-27T09:16:20.980Z,1029.12
2019-03-27T09:17:20.970Z,1029.12
2019-03-27T09:18:21.003Z,1029.01
2019-03-27T09:19:34.620Z,1029.13
2019-03-27T09:20:21.938Z,1029.10
2019-03-27T09:21:20.928Z,1029.14
2019-03-27T09:22:20.919Z,1029.12
2019-03-27T09:23:20.909Z,1029.17
2019-03-27T09:24:20.987Z,1029.17
2019-03-27T09:25:20.884Z,1029.18
2019-03-27T09:26:20.873Z,1029.25
2019-03-27T09:27:20.865Z,1029.30
2019-03-27T09:28:20.855Z,1029.30
2019-03-27T09:29:20.840Z,1029.26
2019-03-27T09:30:20.847Z,1029.26
2019-03-27T09:31:20.820Z,1029.29
2019-03-27T09:32:20.810Z,1029.23
2019-03-27T09:33:20.798Z,1029.20
2019-03-27T09:34:20.787Z,1029.20
2019-03-27T09:35:20.775Z,1029.24
2019-03-27T09:36:20.776Z,1029.23
2019-03-27T09:37:20.760Z,1029.29
2019-03-27T09:38:20.746Z,1029.28
2019-03-27T09:39:20.732Z,1029.24
2019-03-27T09:40:20.731Z,1029.27
2019-03-27T09:41:21.583Z,1029.26
2019-03-27T09:42:20.711Z,1029.28
2019-03-27T09:43:20.687Z,1029.28
2019-03-27T09:44:20.677Z,1029.28
2019-03-27T09:45:20.666Z,1029.33
2019-03-27T09:46:20.655Z,1029.29
2019-03-27T09:47:20.644Z,1029.23
2019-03-27T09:48:20.644Z,1029.20
2019-03-27T09:49:20.625Z,1029.30
2019-03-27T09:50:20.612Z,1029.28
2019-03-27T09:51:20.601Z,1029.27
2019-03-27T09:52:20.590Z,1029.28
2019-03-27T09:53:20.579Z,1029.33
2019-03-27T09:54:20.602Z,1029.38
2019-03-27T09:55:20.560Z,1029.35
2019-03-27T09:56:20.547Z,1029.41
2019-03-27T09:57:20.536Z,1029.36
2019-03-27T09:58:20.527Z,1029.42
2019-03-27T09:59:20.520Z,1029.36
2019-03-27T10:00:20.518Z,1029.41
2019-03-27T10:01:20.492Z,1029.38
2019-03-27T10:02:20.482Z,1029.38
2019-03-27T10:03:20.470Z,1029.44
2019-03-27T10:04:20.459Z,1029.43
2019-03-27T10:05:20.449Z,1029.44
2019-03-27T10:06:20.458Z,1029.43
2019-03-27T10:07:20.428Z,1029.42
2019-03-27T10:08:20.415Z,1029.46
2019-03-27T10:09:20.404Z,1029.55
2019-03-27T10:10:20.393Z,1029.54
2019-03-27T10:11:23.617Z,1029.53
2019-03-27T10:12:20.388Z,1029.53
2019-03-27T10:13:20.368Z,1029.49
2019-03-27T10:14:20.349Z,1029.49
2019-03-27T10:15:20.339Z,1029.48
2019-03-27T10:16:20.330Z,1029.46
2019-03-27T10:17:20.316Z,1029.46
2019-03-27T10:18:20.320Z,1029.42
2019-03-27T10:19:20.294Z,1029.44
2019-03-27T10:20:20.283Z,1029.44
2019-03-27T10:21:20.273Z,1029.46
2019-03-27T10:22:20.270Z,1029.48
2019-03-27T10:23:20.253Z,1029.47
2019-03-27T10:24:20.257Z,1029.48
2019-03-27T10:25:20.229Z,1029.46
2019-03-27T10:26:20.218Z,1029.48
2019-03-27T10:27:20.209Z,1029.46
2019-03-27T10:28:20.199Z,1029.43
2019-03-27T10:29:20.186Z,1029.43
2019-03-27T10:30:20.185Z,1029.44
2019-03-27T10:31:20.166Z,1029.45
2019-03-27T10:32:20.170Z,1029.47
2019-03-27T10:33:20.142Z,1029.44
2019-03-27T10:34:20.139Z,1029.41
2019-03-27T10:35:20.122Z,1029.42
2019-03-27T10:36:20.118Z,1029.43
2019-03-27T10:37:20.098Z,1029.36
2019-03-27T10:38:20.100Z,1029.41
2019-03-27T10:39:20.076Z,1029.44
2019-03-27T10:40:20.065Z,1029.45
2019-03-27T10:41:20.053Z,1029.43
2019-03-27T10:42:20.060Z,1029.41
2019-03-27T10:43:20.032Z,1029.46
2019-03-27T10:44:20.028Z,1029.48
2019-03-27T10:45:20.011Z,1029.47
2019-03-27T10:46:20.012Z,1029.45
2019-03-27T10:47:19.990Z,1029.40
2019-03-27T10:48:20.013Z,1029.41
2019-03-27T10:49:19.967Z,1029.45
2019-03-27T10:50:19.960Z,1029.41
2019-03-27T10:51:19.944Z,1029.40
2019-03-27T10:52:19.934Z,1029.43
2019-03-27T10:53:19.922Z,1029.44
2019-03-27T10:54:19.922Z,1029.41
2019-03-27T10:55:19.901Z,1029.40
2019-03-27T10:56:19.890Z,1029.39
2019-03-27T10:57:19.880Z,1029.40
2019-03-27T10:58:19.871Z,1029.40
2019-03-27T10:59:19.863Z,1029.40
2019-03-27T11:00:19.859Z,1029.46
2019-03-27T11:01:19.838Z,1029.42
2019-03-27T11:02:19.826Z,1029.45
2019-03-27T11:03:19.816Z,1029.40
2019-03-27T11:04:19.806Z,1029.40
2019-03-27T11:05:19.794Z,1029.37
2019-03-27T11:06:19.795Z,1029.39
2019-03-27T11:07:19.772Z,1029.33
2019-03-27T11:08:19.762Z,1029.38
2019-03-27T11:09:19.753Z,1029.30
2019-03-27T11:10:19.740Z,1029.37
2019-03-27T11:11:19.729Z,1029.30
2019-03-27T11:12:19.728Z,1029.29
2019-03-27T11:13:19.706Z,1029.31
2019-03-27T11:14:19.699Z,1029.36
2019-03-27T11:15:19.686Z,1029.35
2019-03-27T11:16:19.678Z,1029.39
2019-03-27T11:17:19.664Z,1029.36
2019-03-27T11:18:19.663Z,1029.40
2019-03-27T11:19:19.644Z,1029.37
2019-03-27T11:20:30.213Z,1029.39
2019-03-27T11:21:20.621Z,1029.35
2019-03-27T11:22:19.610Z,1029.39
2019-03-27T11:23:19.600Z,1029.35
2019-03-27T11:24:19.600Z,1029.31
2019-03-27T11:25:19.580Z,1029.31
2019-03-27T11:26:19.568Z,1029.32
2019-03-27T11:27:19.557Z,1029.25
2019-03-27T11:28:19.546Z,1029.27
2019-03-27T11:29:19.534Z,1029.36
2019-03-27T11:30:19.534Z,1029.30
2019-03-27T11:31:19.514Z,1029.35
2019-03-27T11:32:19.504Z,1029.33
2019-03-27T11:33:19.492Z,1029.30
2019-03-27T11:34:19.485Z,1029.30
2019-03-27T11:35:19.470Z,1029.27
2019-03-27T11:36:19.470Z,1029.26
2019-03-27T11:37:19.458Z,1029.28
2019-03-27T11:38:19.438Z,1029.24
2019-03-27T11:39:19.427Z,1029.21
2019-03-27T11:40:19.417Z,1029.26
2019-03-27T11:41:19.407Z,1029.26
2019-03-27T11:42:19.406Z,1029.28
2019-03-27T11:43:19.384Z,1029.27
2019-03-27T11:44:19.374Z,1029.30
2019-03-27T11:45:19.363Z,1029.27
2019-03-27T11:46:19.353Z,1029.26
2019-03-27T11:47:19.341Z,1029.26
2019-03-27T11:48:19.342Z,1029.26
2019-03-27T11:49:19.322Z,1029.23
2019-03-27T11:50:19.308Z,1029.23
2019-03-27T11:51:19.299Z,1029.24
2019-03-27T11:52:19.287Z,1029.21
2019-03-27T11:53:19.275Z,1029.24
2019-03-27T11:54:19.277Z,1029.21
2019-03-27T11:55:19.254Z,1029.17
2019-03-27T11:56:19.242Z,1029.15
2019-03-27T11:57:19.232Z,1029.23
2019-03-27T11:58:19.221Z,1029.22
2019-03-27T11:59:19.208Z,1029.17
2019-03-27T12:00:19.208Z,1029.22
2019-03-27T12:01:19.187Z,1029.18
2019-03-27T12:02:19.216Z,1029.20
2019-03-27T12:03:19.166Z,1029.18
2019-03-27T12:04:19.156Z,1029.20
2019-03-27T12:05:19.143Z,1029.16